sensor_id;sensor_type;location;lat;lon;timestamp;P1;durP1;ratioP1;P2;durP2;ratioP2
11960;SDS011;6040;49.358;11.140;2024-02-14T00:00:50;9.32;;;6.60;;
11960;SDS011;6040;49.358;11.140;2024-02-14T00:03:17;9.05;;;5.97;;
11960;SDS011;6040;49.358;11.140;2024-02-14T00:05:45;8.40;;;6.20;;
11960;SDS011;6040;49.358;11.140;2024-02-14T00:08:12;8.30;;;6.20;;
11960;SDS011;6040;49.358;11.140;2024-02-14T00:10:40;7.70;;;6.00;;
11960;SDS011;6040;49.358;11.140;2024-02-14T00:13:09;7.25;;;5.65;;
11960;SDS011;6040;49.358;11.140;2024-02-14T00:15:36;7.70;;;5.70;;
11960;SDS011;6040;49.358;11.140;2024-02-14T00:18:05;7.90;;;5.90;;
11960;SDS011;6040;49.358;11.140;2024-02-14T00:20:32;8.63;;;6.03;;
11960;SDS011;6040;49.358;11.140;2024-02-14T00:22:59;7.40;;;5.35;;
11960;SDS011;6040;49.358;11.140;2024-02-14T00:25:26;6.32;;;5.35;;
11960;SDS011;6040;49.358;11.140;2024-02-14T00:27:55;7.38;;;5.60;;
11960;SDS011;6040;49.358;11.140;2024-02-14T00:30:22;6.80;;;5.43;;
11960;SDS011;6040;49.358;11.140;2024-02-14T00:32:50;7.80;;;5.30;;
11960;SDS011;6040;49.358;11.140;2024-02-14T00:35:18;7.95;;;5.43;;
11960;SDS011;6040;49.358;11.140;2024-02-14T00:37:45;7.43;;;5.43;;
11960;SDS011;6040;49.358;11.140;2024-02-14T00:40:12;6.78;;;5.30;;
11960;SDS011;6040;49.358;11.140;2024-02-14T00:42:39;6.57;;;5.30;;
11960;SDS011;6040;49.358;11.140;2024-02-14T00:45:06;6.03;;;4.90;;
11960;SDS011;6040;49.358;11.140;2024-02-14T00:47:34;8.15;;;5.40;;
11960;SDS011;6040;49.358;11.140;2024-02-14T00:50:01;8.07;;;5.30;;
11960;SDS011;6040;49.358;11.140;2024-02-14T00:52:30;6.47;;;5.20;;
11960;SDS011;6040;49.358;11.140;2024-02-14T00:54:56;7.70;;;5.43;;
11960;SDS011;6040;49.358;11.140;2024-02-14T00:57:23;10.38;;;5.65;;
11960;SDS011;6040;49.358;11.140;2024-02-14T00:59:51;7.40;;;5.68;;
11960;SDS011;6040;49.358;11.140;2024-02-14T01:02:18;7.60;;;5.65;;
11960;SDS011;6040;49.358;11.140;2024-02-14T01:04:46;7.10;;;5.50;;
11960;SDS011;6040;49.358;11.140;2024-02-14T01:07:13;8.90;;;5.72;;
11960;SDS011;6040;49.358;11.140;2024-02-14T01:09:41;8.23;;;5.82;;
11960;SDS011;6040;49.358;11.140;2024-02-14T01:12:08;8.68;;;5.40;;
11960;SDS011;6040;49.358;11.140;2024-02-14T01:14:35;8.00;;;5.83;;
11960;SDS011;6040;49.358;11.140;2024-02-14T01:17:02;8.50;;;5.82;;
11960;SDS011;6040;49.358;11.140;2024-02-14T01:19:29;9.68;;;6.00;;
11960;SDS011;6040;49.358;11.140;2024-02-14T01:21:56;6.75;;;5.80;;
11960;SDS011;6040;49.358;11.140;2024-02-14T01:24:23;7.93;;;5.53;;
11960;SDS011;6040;49.358;11.140;2024-02-14T01:26:53;8.20;;;5.63;;
11960;SDS011;6040;49.358;11.140;2024-02-14T01:29:20;8.25;;;5.80;;
11960;SDS011;6040;49.358;11.140;2024-02-14T01:31:48;8.60;;;6.20;;
11960;SDS011;6040;49.358;11.140;2024-02-14T01:34:15;8.30;;;5.75;;
11960;SDS011;6040;49.358;11.140;2024-02-14T01:36:42;8.35;;;5.80;;
11960;SDS011;6040;49.358;11.140;2024-02-14T01:39:08;8.02;;;5.88;;
11960;SDS011;6040;49.358;11.140;2024-02-14T01:41:36;7.13;;;5.80;;
11960;SDS011;6040;49.358;11.140;2024-02-14T01:44:04;6.23;;;5.37;;
11960;SDS011;6040;49.358;11.140;2024-02-14T01:46:31;8.88;;;5.45;;
11960;SDS011;6040;49.358;11.140;2024-02-14T01:48:59;7.80;;;5.60;;
11960;SDS011;6040;49.358;11.140;2024-02-14T01:51:25;6.75;;;5.65;;
11960;SDS011;6040;49.358;11.140;2024-02-14T01:53:53;7.93;;;5.55;;
11960;SDS011;6040;49.358;11.140;2024-02-14T01:56:20;7.15;;;5.60;;
11960;SDS011;6040;49.358;11.140;2024-02-14T01:58:47;7.50;;;5.60;;
11960;SDS011;6040;49.358;11.140;2024-02-14T02:01:15;7.28;;;5.32;;
11960;SDS011;6040;49.358;11.140;2024-02-14T02:03:43;7.87;;;5.60;;
11960;SDS011;6040;49.358;11.140;2024-02-14T02:06:10;6.47;;;5.35;;
11960;SDS011;6040;49.358;11.140;2024-02-14T02:08:37;7.38;;;5.35;;
11960;SDS011;6040;49.358;11.140;2024-02-14T02:11:04;7.28;;;5.50;;
11960;SDS011;6040;49.358;11.140;2024-02-14T02:13:31;8.23;;;6.00;;
11960;SDS011;6040;49.358;11.140;2024-02-14T02:15:58;7.30;;;5.57;;
11960;SDS011;6040;49.358;11.140;2024-02-14T02:18:27;6.97;;;5.40;;
11960;SDS011;6040;49.358;11.140;2024-02-14T02:20:55;6.17;;;5.33;;
11960;SDS011;6040;49.358;11.140;2024-02-14T02:23:24;8.13;;;5.57;;
11960;SDS011;6040;49.358;11.140;2024-02-14T02:25:50;8.38;;;5.38;;
11960;SDS011;6040;49.358;11.140;2024-02-14T02:28:17;7.10;;;5.78;;
11960;SDS011;6040;49.358;11.140;2024-02-14T02:30:44;7.05;;;5.70;;
11960;SDS011;6040;49.358;11.140;2024-02-14T02:33:11;8.30;;;5.65;;
11960;SDS011;6040;49.358;11.140;2024-02-14T02:35:41;7.50;;;5.50;;
11960;SDS011;6040;49.358;11.140;2024-02-14T02:38:10;7.63;;;5.17;;
11960;SDS011;6040;49.358;11.140;2024-02-14T02:40:38;6.80;;;5.50;;
11960;SDS011;6040;49.358;11.140;2024-02-14T02:43:05;9.43;;;5.55;;
11960;SDS011;6040;49.358;11.140;2024-02-14T02:45:32;7.72;;;5.40;;
11960;SDS011;6040;49.358;11.140;2024-02-14T02:47:59;7.55;;;5.00;;
11960;SDS011;6040;49.358;11.140;2024-02-14T02:50:27;8.20;;;5.60;;
11960;SDS011;6040;49.358;11.140;2024-02-14T02:52:55;6.70;;;5.22;;
11960;SDS011;6040;49.358;11.140;2024-02-14T02:55:22;7.75;;;5.40;;
11960;SDS011;6040;49.358;11.140;2024-02-14T02:57:50;7.55;;;5.25;;
11960;SDS011;6040;49.358;11.140;2024-02-14T03:00:18;9.60;;;5.35;;
11960;SDS011;6040;49.358;11.140;2024-02-14T03:02:46;5.90;;;5.30;;
11960;SDS011;6040;49.358;11.140;2024-02-14T03:05:14;6.70;;;4.90;;
11960;SDS011;6040;49.358;11.140;2024-02-14T03:07:43;6.55;;;5.30;;
11960;SDS011;6040;49.358;11.140;2024-02-14T03:10:12;6.50;;;5.03;;
11960;SDS011;6040;49.358;11.140;2024-02-14T03:12:42;7.32;;;5.32;;
11960;SDS011;6040;49.358;11.140;2024-02-14T03:15:13;7.22;;;5.00;;
11960;SDS011;6040;49.358;11.140;2024-02-14T03:17:40;7.15;;;5.05;;
11960;SDS011;6040;49.358;11.140;2024-02-14T03:20:07;6.55;;;4.63;;
11960;SDS011;6040;49.358;11.140;2024-02-14T03:22:37;7.13;;;5.00;;
11960;SDS011;6040;49.358;11.140;2024-02-14T03:25:07;7.53;;;5.13;;
11960;SDS011;6040;49.358;11.140;2024-02-14T03:27:34;8.13;;;5.40;;
11960;SDS011;6040;49.358;11.140;2024-02-14T03:30:02;7.05;;;4.90;;
11960;SDS011;6040;49.358;11.140;2024-02-14T03:32:31;6.22;;;4.60;;
11960;SDS011;6040;49.358;11.140;2024-02-14T03:34:58;6.38;;;4.50;;
11960;SDS011;6040;49.358;11.140;2024-02-14T03:37:25;7.97;;;4.78;;
11960;SDS011;6040;49.358;11.140;2024-02-14T03:39:52;6.00;;;4.53;;
11960;SDS011;6040;49.358;11.140;2024-02-14T03:42:19;7.47;;;4.70;;
11960;SDS011;6040;49.358;11.140;2024-02-14T03:44:46;6.97;;;4.78;;
11960;SDS011;6040;49.358;11.140;2024-02-14T03:47:13;6.40;;;4.53;;
11960;SDS011;6040;49.358;11.140;2024-02-14T03:49:41;5.70;;;4.65;;
11960;SDS011;6040;49.358;11.140;2024-02-14T03:52:08;6.32;;;4.55;;
11960;SDS011;6040;49.358;11.140;2024-02-14T03:54:36;6.30;;;4.60;;
11960;SDS011;6040;49.358;11.140;2024-02-14T03:57:03;6.70;;;4.80;;
11960;SDS011;6040;49.358;11.140;2024-02-14T03:59:35;5.20;;;4.30;;
11960;SDS011;6040;49.358;11.140;2024-02-14T04:02:03;5.43;;;4.30;;
11960;SDS011;6040;49.358;11.140;2024-02-14T04:04:32;7.07;;;5.00;;
11960;SDS011;6040;49.358;11.140;2024-02-14T04:07:01;6.07;;;4.30;;
11960;SDS011;6040;49.358;11.140;2024-02-14T04:09:28;5.03;;;4.18;;
11960;SDS011;6040;49.358;11.140;2024-02-14T04:11:55;6.10;;;4.60;;
11960;SDS011;6040;49.358;11.140;2024-02-14T04:14:22;6.95;;;4.95;;
11960;SDS011;6040;49.358;11.140;2024-02-14T04:16:49;6.85;;;4.68;;
11960;SDS011;6040;49.358;11.140;2024-02-14T04:19:16;7.57;;;4.95;;
11960;SDS011;6040;49.358;11.140;2024-02-14T04:21:43;6.53;;;4.65;;
11960;SDS011;6040;49.358;11.140;2024-02-14T04:24:12;5.55;;;4.90;;
11960;SDS011;6040;49.358;11.140;2024-02-14T04:26:39;7.25;;;4.57;;
11960;SDS011;6040;49.358;11.140;2024-02-14T04:29:07;6.18;;;4.30;;
11960;SDS011;6040;49.358;11.140;2024-02-14T04:31:34;7.03;;;4.80;;
11960;SDS011;6040;49.358;11.140;2024-02-14T04:34:01;7.32;;;5.20;;
11960;SDS011;6040;49.358;11.140;2024-02-14T04:36:28;5.65;;;4.70;;
11960;SDS011;6040;49.358;11.140;2024-02-14T04:38:56;8.75;;;4.90;;
11960;SDS011;6040;49.358;11.140;2024-02-14T04:41:25;8.20;;;4.70;;
11960;SDS011;6040;49.358;11.140;2024-02-14T04:43:52;6.38;;;4.75;;
11960;SDS011;6040;49.358;11.140;2024-02-14T04:46:21;7.00;;;5.27;;
11960;SDS011;6040;49.358;11.140;2024-02-14T04:48:48;6.90;;;4.72;;
11960;SDS011;6040;49.358;11.140;2024-02-14T04:51:15;5.60;;;5.00;;
11960;SDS011;6040;49.358;11.140;2024-02-14T04:53:42;5.75;;;4.93;;
11960;SDS011;6040;49.358;11.140;2024-02-14T04:56:09;7.72;;;5.20;;
11960;SDS011;6040;49.358;11.140;2024-02-14T04:58:37;7.60;;;5.80;;
11960;SDS011;6040;49.358;11.140;2024-02-14T05:01:04;7.82;;;5.72;;
11960;SDS011;6040;49.358;11.140;2024-02-14T05:03:32;9.13;;;5.73;;
11960;SDS011;6040;49.358;11.140;2024-02-14T05:05:59;7.60;;;6.05;;
11960;SDS011;6040;49.358;11.140;2024-02-14T05:08:27;10.10;;;5.78;;
11960;SDS011;6040;49.358;11.140;2024-02-14T05:10:54;8.57;;;5.80;;
11960;SDS011;6040;49.358;11.140;2024-02-14T05:13:21;7.57;;;5.63;;
11960;SDS011;6040;49.358;11.140;2024-02-14T05:15:50;8.13;;;5.80;;
11960;SDS011;6040;49.358;11.140;2024-02-14T05:18:17;6.93;;;5.50;;
11960;SDS011;6040;49.358;11.140;2024-02-14T05:20:44;6.90;;;5.28;;
11960;SDS011;6040;49.358;11.140;2024-02-14T05:23:11;7.28;;;5.25;;
11960;SDS011;6040;49.358;11.140;2024-02-14T05:25:38;7.07;;;5.15;;
11960;SDS011;6040;49.358;11.140;2024-02-14T05:28:05;6.25;;;5.20;;
11960;SDS011;6040;49.358;11.140;2024-02-14T05:30:32;6.70;;;5.30;;
11960;SDS011;6040;49.358;11.140;2024-02-14T05:33:02;6.93;;;5.25;;
11960;SDS011;6040;49.358;11.140;2024-02-14T05:35:29;6.43;;;5.35;;
11960;SDS011;6040;49.358;11.140;2024-02-14T05:37:56;8.18;;;5.47;;
11960;SDS011;6040;49.358;11.140;2024-02-14T05:40:23;7.70;;;5.00;;
11960;SDS011;6040;49.358;11.140;2024-02-14T05:42:50;6.43;;;4.70;;
11960;SDS011;6040;49.358;11.140;2024-02-14T05:45:17;6.50;;;4.82;;
11960;SDS011;6040;49.358;11.140;2024-02-14T05:47:44;6.53;;;5.10;;
11960;SDS011;6040;49.358;11.140;2024-02-14T05:50:12;8.35;;;5.32;;
11960;SDS011;6040;49.358;11.140;2024-02-14T05:52:39;7.22;;;5.00;;
11960;SDS011;6040;49.358;11.140;2024-02-14T05:55:06;5.93;;;5.03;;
11960;SDS011;6040;49.358;11.140;2024-02-14T05:57:34;7.82;;;5.30;;
11960;SDS011;6040;49.358;11.140;2024-02-14T06:00:01;10.77;;;5.65;;
11960;SDS011;6040;49.358;11.140;2024-02-14T06:02:28;9.20;;;5.40;;
11960;SDS011;6040;49.358;11.140;2024-02-14T06:04:55;6.85;;;5.20;;
11960;SDS011;6040;49.358;11.140;2024-02-14T06:07:23;6.78;;;4.78;;
11960;SDS011;6040;49.358;11.140;2024-02-14T06:09:50;7.20;;;4.63;;
11960;SDS011;6040;49.358;11.140;2024-02-14T06:12:17;7.72;;;5.00;;
11960;SDS011;6040;49.358;11.140;2024-02-14T06:14:44;5.53;;;5.00;;
11960;SDS011;6040;49.358;11.140;2024-02-14T06:17:14;8.63;;;5.35;;
11960;SDS011;6040;49.358;11.140;2024-02-14T06:19:41;8.98;;;5.30;;
11960;SDS011;6040;49.358;11.140;2024-02-14T06:22:08;6.85;;;5.53;;
11960;SDS011;6040;49.358;11.140;2024-02-14T06:24:37;8.20;;;5.72;;
11960;SDS011;6040;49.358;11.140;2024-02-14T06:27:04;8.05;;;6.20;;
11960;SDS011;6040;49.358;11.140;2024-02-14T06:29:31;9.70;;;6.32;;
11960;SDS011;6040;49.358;11.140;2024-02-14T06:31:58;10.85;;;7.00;;
11960;SDS011;6040;49.358;11.140;2024-02-14T06:34:24;9.50;;;6.60;;
11960;SDS011;6040;49.358;11.140;2024-02-14T06:36:53;8.13;;;6.57;;
11960;SDS011;6040;49.358;11.140;2024-02-14T06:39:20;8.82;;;6.43;;
11960;SDS011;6040;49.358;11.140;2024-02-14T06:41:48;8.63;;;6.25;;
11960;SDS011;6040;49.358;11.140;2024-02-14T06:44:15;8.93;;;6.57;;
11960;SDS011;6040;49.358;11.140;2024-02-14T06:46:43;11.40;;;6.97;;
11960;SDS011;6040;49.358;11.140;2024-02-14T06:49:09;8.75;;;6.85;;
11960;SDS011;6040;49.358;11.140;2024-02-14T06:51:36;7.75;;;6.43;;
11960;SDS011;6040;49.358;11.140;2024-02-14T06:54:03;10.50;;;7.10;;
11960;SDS011;6040;49.358;11.140;2024-02-14T06:56:30;11.68;;;8.73;;
11960;SDS011;6040;49.358;11.140;2024-02-14T06:58:58;12.15;;;7.60;;
11960;SDS011;6040;49.358;11.140;2024-02-14T07:01:27;9.55;;;7.18;;
11960;SDS011;6040;49.358;11.140;2024-02-14T07:03:54;11.05;;;7.10;;
11960;SDS011;6040;49.358;11.140;2024-02-14T07:06:21;11.02;;;7.65;;
11960;SDS011;6040;49.358;11.140;2024-02-14T07:08:48;13.55;;;9.13;;
11960;SDS011;6040;49.358;11.140;2024-02-14T07:11:15;11.43;;;8.40;;
11960;SDS011;6040;49.358;11.140;2024-02-14T07:13:42;11.32;;;8.45;;
11960;SDS011;6040;49.358;11.140;2024-02-14T07:16:11;11.25;;;8.88;;
11960;SDS011;6040;49.358;11.140;2024-02-14T07:18:37;9.93;;;8.60;;
11960;SDS011;6040;49.358;11.140;2024-02-14T07:21:05;10.40;;;8.27;;
11960;SDS011;6040;49.358;11.140;2024-02-14T07:23:32;11.57;;;6.97;;
11960;SDS011;6040;49.358;11.140;2024-02-14T07:25:59;10.40;;;6.80;;
11960;SDS011;6040;49.358;11.140;2024-02-14T07:28:26;8.73;;;6.70;;
11960;SDS011;6040;49.358;11.140;2024-02-14T07:30:53;8.98;;;6.38;;
11960;SDS011;6040;49.358;11.140;2024-02-14T07:33:21;9.60;;;6.47;;
11960;SDS011;6040;49.358;11.140;2024-02-14T07:35:48;9.33;;;6.60;;
11960;SDS011;6040;49.358;11.140;2024-02-14T07:38:15;10.52;;;7.10;;
11960;SDS011;6040;49.358;11.140;2024-02-14T07:40:42;9.38;;;6.05;;
11960;SDS011;6040;49.358;11.140;2024-02-14T07:43:09;9.73;;;5.60;;
11960;SDS011;6040;49.358;11.140;2024-02-14T07:45:36;9.40;;;5.90;;
11960;SDS011;6040;49.358;11.140;2024-02-14T07:48:04;8.60;;;5.43;;
11960;SDS011;6040;49.358;11.140;2024-02-14T07:50:32;7.57;;;5.40;;
11960;SDS011;6040;49.358;11.140;2024-02-14T07:52:59;7.28;;;5.22;;
11960;SDS011;6040;49.358;11.140;2024-02-14T07:55:27;8.57;;;6.20;;
11960;SDS011;6040;49.358;11.140;2024-02-14T07:57:54;7.50;;;5.20;;
11960;SDS011;6040;49.358;11.140;2024-02-14T08:00:21;8.95;;;5.53;;
11960;SDS011;6040;49.358;11.140;2024-02-14T08:02:48;8.93;;;6.00;;
11960;SDS011;6040;49.358;11.140;2024-02-14T08:05:15;9.20;;;5.90;;
11960;SDS011;6040;49.358;11.140;2024-02-14T08:07:45;9.43;;;5.82;;
11960;SDS011;6040;49.358;11.140;2024-02-14T08:10:12;7.75;;;5.10;;
11960;SDS011;6040;49.358;11.140;2024-02-14T08:12:39;7.53;;;4.68;;
11960;SDS011;6040;49.358;11.140;2024-02-14T08:15:06;9.15;;;5.80;;
11960;SDS011;6040;49.358;11.140;2024-02-14T08:17:33;7.78;;;4.28;;
11960;SDS011;6040;49.358;11.140;2024-02-14T08:20:03;7.50;;;4.22;;
11960;SDS011;6040;49.358;11.140;2024-02-14T08:22:30;7.85;;;4.32;;
11960;SDS011;6040;49.358;11.140;2024-02-14T08:24:58;7.43;;;4.45;;
11960;SDS011;6040;49.358;11.140;2024-02-14T08:27:25;7.30;;;5.00;;
11960;SDS011;6040;49.358;11.140;2024-02-14T08:29:52;7.28;;;5.30;;
11960;SDS011;6040;49.358;11.140;2024-02-14T08:32:20;8.10;;;5.10;;
11960;SDS011;6040;49.358;11.140;2024-02-14T08:34:47;6.82;;;4.57;;
11960;SDS011;6040;49.358;11.140;2024-02-14T08:37:15;6.20;;;4.03;;
11960;SDS011;6040;49.358;11.140;2024-02-14T08:39:42;8.70;;;4.30;;
11960;SDS011;6040;49.358;11.140;2024-02-14T08:42:10;8.07;;;4.32;;
11960;SDS011;6040;49.358;11.140;2024-02-14T08:44:37;7.00;;;4.43;;
11960;SDS011;6040;49.358;11.140;2024-02-14T08:47:04;7.67;;;4.30;;
11960;SDS011;6040;49.358;11.140;2024-02-14T08:49:31;6.95;;;4.22;;
11960;SDS011;6040;49.358;11.140;2024-02-14T08:51:58;7.57;;;4.20;;
11960;SDS011;6040;49.358;11.140;2024-02-14T08:54:25;6.65;;;4.05;;
11960;SDS011;6040;49.358;11.140;2024-02-14T08:56:53;6.45;;;3.97;;
11960;SDS011;6040;49.358;11.140;2024-02-14T08:59:25;7.75;;;4.20;;
11960;SDS011;6040;49.358;11.140;2024-02-14T09:01:51;6.70;;;4.05;;
11960;SDS011;6040;49.358;11.140;2024-02-14T09:04:18;8.77;;;4.90;;
11960;SDS011;6040;49.358;11.140;2024-02-14T09:06:45;7.05;;;4.50;;
11960;SDS011;6040;49.358;11.140;2024-02-14T09:09:12;8.20;;;5.80;;
11960;SDS011;6040;49.358;11.140;2024-02-14T09:11:39;6.80;;;4.30;;
11960;SDS011;6040;49.358;11.140;2024-02-14T09:14:07;5.80;;;4.03;;
11960;SDS011;6040;49.358;11.140;2024-02-14T09:16:36;7.53;;;4.10;;
11960;SDS011;6040;49.358;11.140;2024-02-14T09:19:03;6.00;;;4.05;;
11960;SDS011;6040;49.358;11.140;2024-02-14T09:21:32;6.38;;;4.10;;
11960;SDS011;6040;49.358;11.140;2024-02-14T09:24:00;7.03;;;3.95;;
11960;SDS011;6040;49.358;11.140;2024-02-14T09:26:27;6.88;;;4.22;;
11960;SDS011;6040;49.358;11.140;2024-02-14T09:28:54;6.55;;;4.43;;
11960;SDS011;6040;49.358;11.140;2024-02-14T09:31:21;8.00;;;4.43;;
11960;SDS011;6040;49.358;11.140;2024-02-14T09:33:49;6.60;;;4.55;;
11960;SDS011;6040;49.358;11.140;2024-02-14T09:36:18;7.85;;;4.82;;
11960;SDS011;6040;49.358;11.140;2024-02-14T09:38:46;7.38;;;4.43;;
11960;SDS011;6040;49.358;11.140;2024-02-14T09:41:14;6.28;;;4.30;;
11960;SDS011;6040;49.358;11.140;2024-02-14T09:43:45;6.97;;;4.13;;
11960;SDS011;6040;49.358;11.140;2024-02-14T09:46:13;7.78;;;4.07;;
11960;SDS011;6040;49.358;11.140;2024-02-14T09:48:40;5.73;;;3.90;;
11960;SDS011;6040;49.358;11.140;2024-02-14T09:51:10;7.25;;;4.47;;
11960;SDS011;6040;49.358;11.140;2024-02-14T09:53:38;7.30;;;4.00;;
11960;SDS011;6040;49.358;11.140;2024-02-14T09:56:05;6.97;;;3.83;;
11960;SDS011;6040;49.358;11.140;2024-02-14T09:58:35;6.95;;;3.88;;
11960;SDS011;6040;49.358;11.140;2024-02-14T10:01:03;6.75;;;4.00;;
11960;SDS011;6040;49.358;11.140;2024-02-14T10:03:31;7.63;;;4.10;;
11960;SDS011;6040;49.358;11.140;2024-02-14T10:05:58;7.15;;;3.78;;
11960;SDS011;6040;49.358;11.140;2024-02-14T10:08:27;8.48;;;3.90;;
11960;SDS011;6040;49.358;11.140;2024-02-14T10:10:56;7.90;;;4.30;;
11960;SDS011;6040;49.358;11.140;2024-02-14T10:13:26;6.72;;;4.00;;
11960;SDS011;6040;49.358;11.140;2024-02-14T10:15:52;8.10;;;4.05;;
11960;SDS011;6040;49.358;11.140;2024-02-14T10:18:19;7.05;;;4.05;;
11960;SDS011;6040;49.358;11.140;2024-02-14T10:20:52;6.45;;;3.92;;
11960;SDS011;6040;49.358;11.140;2024-02-14T10:23:20;5.88;;;3.80;;
11960;SDS011;6040;49.358;11.140;2024-02-14T10:25:48;6.65;;;3.78;;
11960;SDS011;6040;49.358;11.140;2024-02-14T10:28:15;6.88;;;3.72;;
11960;SDS011;6040;49.358;11.140;2024-02-14T10:30:45;6.32;;;3.60;;
11960;SDS011;6040;49.358;11.140;2024-02-14T10:33:12;6.00;;;3.63;;
11960;SDS011;6040;49.358;11.140;2024-02-14T10:35:40;7.88;;;3.60;;
11960;SDS011;6040;49.358;11.140;2024-02-14T10:38:08;6.43;;;3.90;;
11960;SDS011;6040;49.358;11.140;2024-02-14T10:40:35;6.53;;;3.47;;
11960;SDS011;6040;49.358;11.140;2024-02-14T10:43:04;6.32;;;3.80;;
11960;SDS011;6040;49.358;11.140;2024-02-14T10:45:32;5.53;;;3.30;;
11960;SDS011;6040;49.358;11.140;2024-02-14T10:47:59;5.72;;;3.38;;
11960;SDS011;6040;49.358;11.140;2024-02-14T10:50:27;4.82;;;3.45;;
11960;SDS011;6040;49.358;11.140;2024-02-14T10:52:57;6.55;;;4.07;;
11960;SDS011;6040;49.358;11.140;2024-02-14T10:55:27;5.70;;;3.15;;
11960;SDS011;6040;49.358;11.140;2024-02-14T10:57:57;4.90;;;3.10;;
11960;SDS011;6040;49.358;11.140;2024-02-14T11:00:25;6.80;;;3.42;;
11960;SDS011;6040;49.358;11.140;2024-02-14T11:02:53;5.60;;;3.40;;
11960;SDS011;6040;49.358;11.140;2024-02-14T11:05:20;5.70;;;3.53;;
11960;SDS011;6040;49.358;11.140;2024-02-14T11:07:49;6.55;;;3.70;;
11960;SDS011;6040;49.358;11.140;2024-02-14T11:10:18;6.60;;;3.20;;
11960;SDS011;6040;49.358;11.140;2024-02-14T11:12:46;5.60;;;3.50;;
11960;SDS011;6040;49.358;11.140;2024-02-14T11:15:16;6.10;;;3.50;;
11960;SDS011;6040;49.358;11.140;2024-02-14T11:17:46;5.80;;;3.17;;
11960;SDS011;6040;49.358;11.140;2024-02-14T11:20:17;7.00;;;4.25;;
11960;SDS011;6040;49.358;11.140;2024-02-14T11:22:54;4.97;;;3.40;;
11960;SDS011;6040;49.358;11.140;2024-02-14T11:25:23;6.38;;;3.08;;
11960;SDS011;6040;49.358;11.140;2024-02-14T11:27:55;4.18;;;2.70;;
11960;SDS011;6040;49.358;11.140;2024-02-14T11:30:29;5.68;;;2.60;;
11960;SDS011;6040;49.358;11.140;2024-02-14T11:33:12;4.73;;;2.10;;
11960;SDS011;6040;49.358;11.140;2024-02-14T11:35:40;4.00;;;2.10;;
11960;SDS011;6040;49.358;11.140;2024-02-14T11:38:07;4.10;;;1.98;;
11960;SDS011;6040;49.358;11.140;2024-02-14T11:40:35;4.28;;;2.10;;
11960;SDS011;6040;49.358;11.140;2024-02-14T11:43:03;3.78;;;1.90;;
11960;SDS011;6040;49.358;11.140;2024-02-14T11:45:30;3.67;;;2.13;;
11960;SDS011;6040;49.358;11.140;2024-02-14T11:47:57;6.03;;;2.20;;
11960;SDS011;6040;49.358;11.140;2024-02-14T11:50:25;3.80;;;2.20;;
11960;SDS011;6040;49.358;11.140;2024-02-14T11:52:53;3.40;;;2.00;;
11960;SDS011;6040;49.358;11.140;2024-02-14T11:55:26;3.15;;;1.80;;
11960;SDS011;6040;49.358;11.140;2024-02-14T11:57:54;4.07;;;1.90;;
11960;SDS011;6040;49.358;11.140;2024-02-14T12:00:21;4.20;;;2.00;;
11960;SDS011;6040;49.358;11.140;2024-02-14T12:02:49;4.28;;;2.00;;
11960;SDS011;6040;49.358;11.140;2024-02-14T12:05:16;2.85;;;1.83;;
11960;SDS011;6040;49.358;11.140;2024-02-14T12:07:45;3.60;;;1.88;;
11960;SDS011;6040;49.358;11.140;2024-02-14T12:10:12;4.07;;;1.87;;
11960;SDS011;6040;49.358;11.140;2024-02-14T12:12:39;2.00;;;1.70;;
11960;SDS011;6040;49.358;11.140;2024-02-14T12:15:09;2.83;;;1.63;;
11960;SDS011;6040;49.358;11.140;2024-02-14T12:17:36;1.88;;;1.60;;
11960;SDS011;6040;49.358;11.140;2024-02-14T12:20:07;3.33;;;1.70;;
11960;SDS011;6040;49.358;11.140;2024-02-14T12:22:36;3.33;;;1.63;;
11960;SDS011;6040;49.358;11.140;2024-02-14T12:25:05;2.60;;;1.60;;
11960;SDS011;6040;49.358;11.140;2024-02-14T12:27:33;3.80;;;1.60;;
11960;SDS011;6040;49.358;11.140;2024-02-14T12:30:02;2.50;;;1.75;;
11960;SDS011;6040;49.358;11.140;2024-02-14T12:32:30;3.15;;;1.77;;
11960;SDS011;6040;49.358;11.140;2024-02-14T12:34:57;4.32;;;1.98;;
11960;SDS011;6040;49.358;11.140;2024-02-14T12:37:24;2.22;;;1.58;;
11960;SDS011;6040;49.358;11.140;2024-02-14T12:39:51;3.55;;;1.63;;
11960;SDS011;6040;49.358;11.140;2024-02-14T12:42:20;3.47;;;1.70;;
11960;SDS011;6040;49.358;11.140;2024-02-14T12:44:50;3.10;;;1.70;;
11960;SDS011;6040;49.358;11.140;2024-02-14T12:47:17;3.35;;;1.70;;
11960;SDS011;6040;49.358;11.140;2024-02-14T12:49:46;2.60;;;1.48;;
11960;SDS011;6040;49.358;11.140;2024-02-14T12:52:13;2.97;;;1.65;;
11960;SDS011;6040;49.358;11.140;2024-02-14T12:54:40;2.83;;;1.50;;
11960;SDS011;6040;49.358;11.140;2024-02-14T12:57:07;2.07;;;1.60;;
11960;SDS011;6040;49.358;11.140;2024-02-14T12:59:35;3.17;;;1.73;;
11960;SDS011;6040;49.358;11.140;2024-02-14T13:02:03;2.10;;;1.50;;
11960;SDS011;6040;49.358;11.140;2024-02-14T13:04:31;2.30;;;1.50;;
11960;SDS011;6040;49.358;11.140;2024-02-14T13:06:58;1.70;;;1.40;;
11960;SDS011;6040;49.358;11.140;2024-02-14T13:09:25;1.83;;;1.48;;
11960;SDS011;6040;49.358;11.140;2024-02-14T13:11:52;3.42;;;1.50;;
11960;SDS011;6040;49.358;11.140;2024-02-14T13:14:19;2.70;;;1.33;;
11960;SDS011;6040;49.358;11.140;2024-02-14T13:16:47;2.47;;;1.40;;
11960;SDS011;6040;49.358;11.140;2024-02-14T13:19:14;2.15;;;1.40;;
11960;SDS011;6040;49.358;11.140;2024-02-14T13:21:42;2.08;;;1.30;;
11960;SDS011;6040;49.358;11.140;2024-02-14T13:24:10;2.25;;;1.48;;
11960;SDS011;6040;49.358;11.140;2024-02-14T13:26:39;1.85;;;1.30;;
11960;SDS011;6040;49.358;11.140;2024-02-14T13:29:06;2.78;;;1.42;;
11960;SDS011;6040;49.358;11.140;2024-02-14T13:31:33;2.25;;;1.35;;
11960;SDS011;6040;49.358;11.140;2024-02-14T13:34:01;3.10;;;1.30;;
11960;SDS011;6040;49.358;11.140;2024-02-14T13:36:28;2.35;;;1.40;;
11960;SDS011;6040;49.358;11.140;2024-02-14T13:38:56;2.08;;;1.30;;
11960;SDS011;6040;49.358;11.140;2024-02-14T13:41:23;1.77;;;1.38;;
11960;SDS011;6040;49.358;11.140;2024-02-14T13:43:50;2.22;;;1.20;;
11960;SDS011;6040;49.358;11.140;2024-02-14T13:46:17;1.67;;;1.20;;
11960;SDS011;6040;49.358;11.140;2024-02-14T13:48:44;1.80;;;1.38;;
11960;SDS011;6040;49.358;11.140;2024-02-14T13:51:12;1.95;;;1.27;;
11960;SDS011;6040;49.358;11.140;2024-02-14T13:53:39;2.80;;;1.23;;
11960;SDS011;6040;49.358;11.140;2024-02-14T13:56:06;2.37;;;1.20;;
11960;SDS011;6040;49.358;11.140;2024-02-14T13:58:33;3.15;;;1.20;;
11960;SDS011;6040;49.358;11.140;2024-02-14T14:01:00;1.33;;;1.20;;
11960;SDS011;6040;49.358;11.140;2024-02-14T14:03:27;2.20;;;1.20;;
11960;SDS011;6040;49.358;11.140;2024-02-14T14:05:54;1.83;;;0.97;;
11960;SDS011;6040;49.358;11.140;2024-02-14T14:08:23;3.83;;;1.10;;
11960;SDS011;6040;49.358;11.140;2024-02-14T14:10:50;2.73;;;1.07;;
11960;SDS011;6040;49.358;11.140;2024-02-14T14:13:17;3.03;;;1.00;;
11960;SDS011;6040;49.358;11.140;2024-02-14T14:15:44;1.07;;;0.97;;
11960;SDS011;6040;49.358;11.140;2024-02-14T14:18:10;2.40;;;1.10;;
11960;SDS011;6040;49.358;11.140;2024-02-14T14:20:37;1.10;;;1.00;;
11960;SDS011;6040;49.358;11.140;2024-02-14T14:23:04;3.87;;;1.03;;
11960;SDS011;6040;49.358;11.140;2024-02-14T14:25:34;1.40;;;1.10;;
11960;SDS011;6040;49.358;11.140;2024-02-14T14:28:02;2.17;;;1.00;;
11960;SDS011;6040;49.358;11.140;2024-02-14T14:30:29;2.70;;;1.10;;
11960;SDS011;6040;49.358;11.140;2024-02-14T14:32:56;1.07;;;1.00;;
11960;SDS011;6040;49.358;11.140;2024-02-14T14:35:23;1.80;;;1.20;;
11960;SDS011;6040;49.358;11.140;2024-02-14T14:37:50;3.60;;;1.27;;
11960;SDS011;6040;49.358;11.140;2024-02-14T14:40:19;1.40;;;1.13;;
11960;SDS011;6040;49.358;11.140;2024-02-14T14:42:47;2.23;;;1.30;;
11960;SDS011;6040;49.358;11.140;2024-02-14T14:45:14;1.60;;;1.20;;
11960;SDS011;6040;49.358;11.140;2024-02-14T14:47:41;1.70;;;1.30;;
11960;SDS011;6040;49.358;11.140;2024-02-14T14:50:08;1.53;;;1.27;;